Weather observations for the past three days for
Fergus Falls Municipal Airport-Einar Mickel
Metric (Imperial)
Date Time (cdt) Wind (kph) Vis. (km) Weather Sky Cond. Temperature (ºC) Relative Humidity Wind Chill (°C) Heat Index (°C) Pressure Precipitation (cm)
Air Dwpt 6 hour altimeter (cm) sea level (mb) 1 hr 3 hr 6 hr
Max. Min.
04 07:55 NE 6 0.24 Fog OVC002 18 18 100% 75.97 0.0
04 07:35 NE 6 0.24 Fog OVC002 18 18 100% 75.95 0.0
04 07:15 NE 7 0.24 Fog OVC002 18 18 100% 75.92 0.0
04 06:55 NE 7 0.24 Fog OVC002 18 18 100% 75.92 0.0
04 06:35 E 7 0.40 Fog OVC002 18 18 100% 75.9 0.0
04 06:15 NE 13 1.21 Fog/Mist OVC002 18 18 100% 75.87 0.0
04 05:55 E 15 2.41 Fog/Mist OVC002 18 18 100% 75.84 0.0
04 05:35 E 7 9.66 Fog/Mist OVC003 18 18 100% 75.84 0.0
04 05:15 E 15 11.27 Overcast OVC003 18 18 100% 75.82 0.0
04 04:55 E 17 12.87 Overcast BKN003 OVC060 18 18 100% 75.82 0.0
04 04:15 E 17 16.09 Overcast OVC055 19 19 100% 75.79 0.0
04 03:55 E 17 16.09 Mostly Cloudy BKN047 19 19 100% 75.77 0.0
04 03:35 NE 17 16.09 Fair CLR 19 19 100% 75.77 0.0
04 03:15 NE 15 16.09 Fair CLR 19 19 100% 75.77 0.0
04 02:55 E 19 16.09 Fair CLR 20 20 100% 75.74 0.0
04 02:35 NE 19 16.09 Fair CLR 20 20 100% 75.74 0.0
04 02:15 NE 20 16.09 Fair CLR 20 20 100% 75.74 0.0
04 01:55 E 19 16.09 Fair CLR 20 20 100% 75.72 0.0
04 01:35 NE 17 G 30 16.09 Fair CLR 21 21 100% 75.72 0.0
04 01:15 NE 11 G 30 16.09 Fair CLR 21 21 100% 75.69 0.0
04 00:55 E 22 16.09 Fair CLR 21 21 100% 75.67 0.0
04 00:35 NE 20 16.09 Fair CLR 21 21 100% 75.64 0.0
04 00:15 E 22 16.09 Fair CLR 22 22 100% 75.62 0.0
03 23:55 NE 26 16.09 Fair CLR 22 22 100% 75.62 0.0
03 23:35 NE 22 16.09 Fair CLR 23 23 100% 75.59 0.0
03 23:15 NE 17 16.09 Fair CLR 24 24 100% 23 75.59 0.0
03 22:55 E 15 16.09 Fair CLR 24 24 100% 23 75.59 0.0
03 22:35 E 13 16.09 Fair CLR 23 23 100% 75.59 0.0
03 22:15 E 15 16.09 Fair CLR 23 23 100% 75.59 0.0
03 21:55 E 11 16.09 Fair CLR 23 23 100% 75.59 0.0
03 21:35 NE 9 16.09 Fair CLR 23 23 100% 75.57 0.0
03 21:15 E 13 16.09 Fair CLR 24 24 100% 23 75.54 0.0
03 20:55 E 13 16.09 Fair CLR 23 23 100% 75.57 0.0
03 20:35 E 17 16.09 Fair CLR 23 23 100% 75.54 0.0
03 20:15 E 17 G 26 16.09 Fair CLR 23 23 100% 75.51 0.0
03 19:55 NE 19 16.09 A Few Clouds FEW075 FEW090 23 23 100% 75.51 0.0 0.91
03 19:35 E 17 2.41 Heavy Rain Fog/Mist VV007 23 23 100% 75.57 0.0
03 19:15 N 20 G 31 2.01 Heavy Rain Fog/Mist FEW048 SCT060 SCT070 24 23 94% 23 75.59 0.0
03 18:55 NE 20 14.48 A Few Clouds FEW065 FEW075 FEW085 27 21 70% 29 75.49 0.0
03 18:35 NE 19 16.09 Fair CLR 28 21 66% 30 75.49 0.0
03 18:15 NE 17 16.09 Fair CLR 28 21 66% 30 75.46 0.0
03 17:55 NE 22 16.09 Partly Cloudy SCT050 SCT055 29 21 62% 31 75.49 0.0
03 17:35 N 28 16.09 Partly Cloudy FEW050 SCT120 32 21 52% 35 75.49 0.0
03 17:15 SE 13 16.09 Partly Cloudy SCT110 31 22 59% 35 75.49 0.0
03 16:55 SE 20 G 31 16.09 Fair CLR 31 22 59% 35 75.44 0.0
03 16:35 SE 26 16.09 Fair CLR 32 22 55% 36 75.39 0.0
03 16:15 SE 20 16.09 Fair CLR 32 22 55% 36 75.41 0.0
03 15:55 SE 19 16.09 Fair CLR 32 21 52% 35 75.44 0.0
03 15:35 SE 17 G 31 16.09 Fair CLR 32 21 52% 35 75.44 0.0
03 15:15 SE 17 G 30 16.09 Fair CLR 31 21 55% 34 75.46 0.0
03 14:55 SE 24 16.09 Fair CLR 32 21 52% 35 75.44 0.0
03 14:35 SE 19 G 35 16.09 Fair CLR 32 21 52% 35 75.46 0.0
03 14:15 SE 19 G 37 16.09 Fair CLR 31 21 55% 34 75.46 0.0
03 13:55 SE 24 16.09 Fair CLR 31 21 55% 34 75.46 0.0
03 13:35 SE 30 16.09 Fair CLR 31 21 55% 34 75.49 0.0
03 13:15 SE 20 G 33 16.09 Fair CLR 30 21 59% 33 75.51 0.0
03 12:55 S 24 G 35 16.09 Fair CLR 30 21 59% 33 75.51 0.0
03 12:35 SE 28 16.09 Fair CLR 29 21 62% 31 75.54 0.0
03 12:15 SE 22 G 35 16.09 Fair CLR 29 21 62% 31 75.57 0.0
03 11:55 SE 28 16.09 Fair CLR 29 21 62% 31 75.57 0.0
03 11:35 SE 24 16.09 Fair CLR 28 21 66% 30 75.59 0.0
03 11:15 SE 22 G 31 16.09 Fair CLR 26 21 74% 27 75.59 0.0
03 10:55 SE 20 16.09 Fair CLR 26 21 74% 27 75.59 0.0
03 10:35 E 24 16.09 Fair CLR 26 22 79% 28 75.59 0.0
03 10:15 E 26 16.09 Fair CLR 26 21 74% 27 75.59 0.0
03 09:55 E 26 G 37 16.09 Fair CLR 26 21 74% 27 75.59 0.0
03 09:35 E 19 16.09 Fair CLR 25 21 79% 26 75.62 0.0
03 09:15 Calm 16.09 Fair CLR 24 20 78% 24 75.62 0.0
03 08:55 E 17 14.48 Fair CLR 23 20 83% 75.64 0.0
03 08:35 E 22 G 31 16.09 Fair CLR 23 19 78% 75.64 0.0
03 08:15 E 22 G 35 16.09 Fair CLR 22 19 83% 75.64 0.0
03 07:55 E 22 16.09 Fair CLR 21 18 83% 75.67 0.0
03 07:35 E 24 G 33 16.09 Fair CLR 21 18 83% 75.67 0.0
03 07:15 E 24 16.09 Fair CLR 21 18 83% 75.67 0.0
03 06:35 E 22 16.09 Overcast OVC050 21 17 78% 75.69 0.0
03 06:15 E 19 16.09 Overcast OVC050 21 17 78% 75.72 0.0
03 05:55 E 19 G 31 16.09 Mostly Cloudy BKN050 20 17 83% 75.69 0.0
03 05:35 E 20 16.09 A Few Clouds FEW050 20 17 83% 75.69 0.0
03 05:15 E 20 16.09 Fair CLR 21 16 73% 75.69 0.0
03 04:55 E 19 16.09 Fair CLR 21 16 73% 75.72 0.0
03 04:35 E 20 16.09 Fair CLR 21 16 73% 75.72 0.0
03 04:15 E 19 G 28 16.09 A Few Clouds FEW055 21 16 73% 75.74 0.0
03 03:55 E 19 16.09 Partly Cloudy SCT050 21 16 73% 75.74 0.0
03 03:35 E 20 16.09 Mostly Cloudy BKN055 21 16 73% 75.74 0.0
03 03:15 E 24 G 33 16.09 Mostly Cloudy BKN055 21 16 73% 75.74 0.0
03 02:55 E 20 16.09 A Few Clouds FEW060 21 16 73% 75.77 0.0
03 02:35 E 19 16.09 Fair CLR 21 16 73% 75.77 0.0
03 02:15 E 19 G 30 16.09 Fair CLR 21 16 73% 75.79 0.0
03 01:55 E 22 G 31 16.09 Fair CLR 21 16 73% 75.79 0.0
03 01:35 E 22 16.09 Fair CLR 22 16 69% 75.79 0.0
03 01:15 E 20 G 31 16.09 Fair CLR 22 16 69% 75.82 0.0
03 00:55 E 22 16.09 Fair CLR 22 16 69% 75.82 0.0
03 00:35 E 20 16.09 A Few Clouds FEW060 22 16 69% 75.82 0.0
03 00:15 E 22 16.09 Overcast BKN055 OVC065 22 16 69% 75.82 0.0
02 23:55 E 17 16.09 Overcast OVC055 22 15 65% 75.84 0.0
02 23:35 E 20 16.09 Overcast OVC055 22 15 65% 75.84 0.0
02 23:15 E 17 16.09 Overcast OVC055 23 15 61% 75.87 0.0
02 22:55 E 17 16.09 Overcast OVC060 23 15 61% 75.87 0.0
02 22:35 E 17 16.09 Overcast OVC060 23 15 61% 75.87 0.0
02 22:15 NE 15 16.09 Overcast BKN060 OVC075 23 15 61% 75.87 0.0
02 21:55 E 15 16.09 Overcast OVC070 23 15 61% 75.87 0.0
02 21:35 E 13 16.09 Overcast BKN070 OVC080 23 15 61% 75.87 0.0
02 21:15 E 13 16.09 Overcast OVC070 24 15 57% 25 75.87 0.0
02 20:55 E 13 16.09 Overcast OVC070 23 15 61% 75.87 0.0
02 20:35 E 11 16.09 Overcast BKN075 OVC090 23 15 61% 75.87 0.0
02 20:15 NE 13 16.09 Mostly Cloudy BKN075 BKN095 24 15 57% 25 75.84 0.0
02 19:55 NE 11 16.09 Partly Cloudy SCT090 25 15 54% 26 75.84 0.0
02 19:35 NE 13 16.09 Partly Cloudy SCT090 25 14 51% 26 75.84 0.0
02 19:15 NE 13 16.09 Partly Cloudy SCT090 26 14 48% 26 75.82 0.0
02 18:55 NE 15 16.09 Partly Cloudy SCT085 SCT110 26 14 48% 26 75.84 0.0
02 18:35 NE 15 16.09 Mostly Cloudy BKN080 BKN100 27 14 45% 27 75.84 0.0
02 18:15 NE 17 16.09 Mostly Cloudy BKN075 BKN085 28 14 42% 28 75.84 0.0
02 17:55 NE 13 16.09 Mostly Cloudy SCT080 BKN095 28 14 42% 28 75.84 0.0
02 17:35 NE 13 16.09 Partly Cloudy SCT085 28 14 42% 28 75.84 0.0
02 17:15 NE 13 16.09 Mostly Cloudy BKN090 29 13 37% 28 75.87 0.0
02 16:55 NE 13 16.09 Partly Cloudy SCT085 29 12 35% 28 75.87 0.0
02 16:35 E 15 16.09 Fair CLR 29 12 35% 28 75.87 0.0
02 16:15 NE 11 16.09 A Few Clouds FEW085 28 11 35% 27 75.9 0.0
02 15:55 E 9 G 19 16.09 Mostly Cloudy BKN080 29 12 35% 28 75.9 0.0
02 15:35 E 13 16.09 Mostly Cloudy BKN080 28 12 37% 27 75.92 0.0
02 15:15 E 7 16.09 Partly Cloudy SCT090 28 12 37% 27 75.92 0.0
02 14:55 Calm 16.09 Partly Cloudy SCT090 28 12 37% 27 75.95 0.0
02 14:35 NE 13 16.09 Fair CLR 28 12 37% 27 75.95 0.0
02 14:15 Calm 16.09 Fair CLR 28 12 37% 27 75.95 0.0
02 13:55 Vrbl 9 G 19 16.09 Fair CLR 28 12 37% 27 75.97 0.0
02 13:35 Vrbl 7 16.09 Fair CLR 28 12 37% 27 76 0.0
02 13:15 Vrbl 9 G 20 16.09 Fair CLR 28 12 37% 27 76 0.0
02 12:55 NE 15 16.09 Fair CLR 28 13 40% 28 76 0.0
02 12:35 E 11 16.09 Fair CLR 27 12 39% 27 76.02 0.0
02 12:15 E 11 16.09 Fair CLR 27 13 42% 27 76.02 0.0
02 11:55 E 13 16.09 Fair CLR 26 14 48% 26 76 0.0
02 11:35 E 13 16.09 Fair CLR 26 14 48% 26 76.02 0.0
02 11:15 NE 13 16.09 A Few Clouds FEW095 25 15 54% 26 76.02 0.0
02 10:55 E 13 16.09 Fair CLR 25 14 51% 26 76.02 0.0
02 10:35 E 15 16.09 Fair CLR 25 14 51% 26 76.02 0.0
02 10:15 E 15 16.09 Fair CLR 24 15 57% 25 76 0.0
02 09:55 NE 13 16.09 Fair CLR 23 16 65% 76 0.0
02 09:35 E 9 16.09 Fair CLR 23 18 74% 76.02 0.0
02 09:15 E 11 16.09 Fair CLR 21 19 88% 76.05 0.0
02 08:35 NE 7 16.09 Fair CLR 19 19 100% 76.07 0.0
02 08:15 Calm 16.09 Fair CLR 18 18 100% 76.07 0.0
02 07:55 E 7 16.09 Fair CLR 18 18 100% 76.05 0.0
02 07:35 Calm 16.09 Fair CLR 19 18 94% 76.05 0.0
02 07:15 E 11 16.09 Fair CLR 18 17 94% 76.02 0.0
02 06:55 E 11 16.09 Fair CLR 17 17 100% 76.02 0.0
02 06:35 NE 7 16.09 A Few Clouds FEW120 17 17 100% 76.05 0.0
02 06:15 NE 7 16.09 A Few Clouds FEW120 17 16 94% 76.05 0.0
02 05:55 NE 11 16.09 A Few Clouds FEW120 17 16 94% 76 0.0
02 05:35 NE 11 16.09 Fair CLR 17 16 94% 76.02 0.0
02 05:15 NE 11 16.09 Fair CLR 17 16 94% 76.02 0.0
02 04:55 E 7 16.09 Partly Cloudy SCT110 18 16 88% 76.02 0.0
02 04:35 Calm 14.48 Overcast OVC110 17 17 100% 76.05 0.0
02 04:15 E 9 16.09 Mostly Cloudy BKN110 18 16 88% 76.05 0.0
02 03:55 E 6 16.09 Fair CLR 16 16 100% 76.02 0.0
02 03:35 NE 11 16.09 Fair CLR 17 16 94% 76 0.0
02 03:15 NE 9 16.09 Fair CLR 17 16 94% 76 0.0
02 02:55 NE 9 16.09 Fair CLR 17 16 94% 75.97 0.0
02 02:35 NE 9 16.09 Fair CLR 18 17 94% 75.95 0.0
02 02:15 NE 7 16.09 A Few Clouds FEW120 18 17 94% 75.97 0.0
02 01:55 N 13 16.09 Overcast OVC120 19 17 88% 75.97 0.0
02 01:35 N 13 16.09 Mostly Cloudy BKN120 19 18 94% 76 0.0
02 01:15 NE 11 16.09 A Few Clouds FEW110 19 18 94% 76 0.0
02 00:55 NE 9 14.48 A Few Clouds FEW110 19 19 100% 76.02 0.0
02 00:35 E 6 16.09 Fair CLR 19 18 94% 76.02 0.0
02 00:15 Calm 16.09 A Few Clouds FEW120 20 19 94% 76.02 0.0
01 23:55 Calm 16.09 Mostly Cloudy BKN120 20 19 94% 76.02 0.0
01 23:35 SE 6 16.09 Overcast FEW065 SCT085 OVC110 20 19 94% 76.05 0.0
01 23:15 Calm 16.09 Mostly Cloudy FEW055 SCT090 BKN120 20 18 88% 76.05 0.0
01 22:55 Calm 16.09 Partly Cloudy FEW070 FEW100 SCT120 21 16 73% 76.07 0.0
01 22:35 Calm 16.09 Mostly Cloudy FEW055 SCT075 BKN120 21 17 78% 76.07 0.0
01 22:15 Calm 16.09 Mostly Cloudy FEW055 SCT065 BKN080 21 17 78% 76.07 0.0
01 21:55 Calm 16.09 Mostly Cloudy FEW080 SCT090 BKN120 22 16 69% 76.05 0.0
01 21:35 N 6 16.09 Fair CLR 21 17 78% 76.05 0.0
01 21:15 Calm 16.09 A Few Clouds FEW120 21 17 78% 76.02 0.0
01 20:55 Calm 11.27 Partly Cloudy SCT120 21 17 78% 76.02 0.0
01 20:35 W 6 16.09 Fair CLR 22 17 73% 76.02 0.0
01 20:15 W 9 16.09 Fair CLR 22 17 73% 76.05 0.0
01 19:55 W 7 16.09 Fair CLR 22 17 73% 76.02 0.0
01 19:35 SW 7 16.09 Fair CLR 23 16 65% 76 0.0
01 19:15 SW 7 14.48 Fair CLR 24 16 61% 25 76.02 0.0
01 18:55 W 7 16.09 Fair CLR 24 16 61% 25 76.02 0.0
01 18:35 W 7 14.48 Fair CLR 25 15 54% 26 76.02 0.0
01 18:15 W 7 16.09 Fair CLR 25 14 51% 26 76.02 0.0
01 17:55 W 11 16.09 Fair CLR 26 14 48% 26 76.05 0.0
01 17:35 W 9 16.09 Fair CLR 27 14 45% 27 76.05 0.0
01 17:15 W 9 16.09 Fair CLR 26 13 45% 26 76.05 0.0
01 16:55 W 11 16.09 Fair CLR 27 13 42% 27 76.05 0.0
01 16:35 W 13 16.09 Fair CLR 27 14 45% 27 76.05 0.0
01 16:15 W 9 16.09 Fair CLR 27 14 45% 27 76.05 0.0
01 15:55 W 15 16.09 Fair CLR 27 13 42% 27 76.05 0.0
01 15:35 Vrbl 11 14.48 Fair CLR 28 14 42% 28 76.05 0.0
01 15:15 Vrbl 7 16.09 Fair CLR 27 13 42% 27 76.05 0.0
01 14:55 W 13 16.09 Fair CLR 27 14 45% 27 76.07 0.0
01 14:35 Vrbl 7 16.09 Fair CLR 26 14 48% 26 76.07 0.0
01 14:15 NW 6 14.48 Fair CLR 25 14 51% 26 76.1 0.0
01 14:00 NW 11 16.09 Fair CLR 25 14 51% 26 76.07 0.0
01 13:35 W 11 14.48 Fair CLR 25 13 47% 26 76.1 0.0
01 13:15 Calm 14.48 Fair CLR 25 13 47% 26 76.12 0.0
01 12:55 Vrbl 7 16.09 Fair CLR 25 14 51% 26 76.15 0.0
01 12:35 Vrbl 6 16.09 Fair CLR 25 14 51% 26 76.15 0.0
01 12:15 N 6 16.09 Fair CLR 24 14 54% 25 76.15 0.0
01 11:55 Vrbl 7 16.09 Fair CLR 25 15 54% 26 76.17 0.0
01 11:35 Calm 16.09 Fair CLR 23 14 57% 76.17 0.0
01 11:15 Calm 16.09 Fair CLR 23 14 57% 76.15 0.0
01 10:55 Calm 16.09 Fair CLR 23 14 57% 76.15 0.0
01 10:35 Calm 16.09 Fair CLR 23 14 57% 76.15 0.0
01 10:15 Calm 14.48 Fair CLR 22 16 69% 76.17 0.0
01 09:55 S 9 16.09 Fair CLR 20 17 83% 76.2 0.0
01 09:35 Calm 16.09 Fair CLR 20 17 83% 76.17 0.0
01 09:15 Calm 16.09 Fair CLR 18 17 94% 76.17 0.0
01 08:55 Calm 16.09 Fair CLR 17 17 100% 76.2 0.0
01 08:35 Vrbl 11 16.09 Fair CLR 17 17 100% 76.2 0.0
01 08:15 Calm 16.09 Fair CLR 17 16 94% 76.17 0.0
Date Time (cdt) Wind (kph) Vis. (km) Weather Sky Cond. Air Dwpt Max. Min. Relative Humidity Wind Chill (°C) Heat Index (°C) altimeter (cm) sea level (mb) 1 hr 3 hr 6 hr
6 hour
Temperature (ºC) Pressure Precipitation (cm)